Time;durP1;ratioP1;P1;durP2;ratioP2;P2;SDS_P1;SDS_P2;PMS_P1;PMS_P2;Temp;Humidity;BMP_temperature;BMP_pressure;BME280_temperature;BME280_humidity;BME280_pressure;Samples;Min_cycle;Max_cycle;Signal;HPM_P1;HPM_P2
2023/09/18 00:00:49;;;;;;;54.75;17.02;;;15.70;99.90;;;;;;5056804;28;20071;-83
2023/09/18 00:03:20;;;;;;;21.02;16.95;;;15.70;99.90;;;;;;5060544;28;20044;-83
2023/09/18 00:05:49;;;;;;;22.45;17.63;;;15.80;99.90;;;;;;5057776;28;20079;-83
2023/09/18 00:08:15;;;;;;;24.63;19.00;;;15.80;99.90;;;;;;5055517;28;20094;-83
2023/09/18 00:10:41;;;;;;;23.88;19.23;;;15.80;99.90;;;;;;5054537;28;20043;-83
2023/09/18 00:13:10;;;;;;;25.13;19.23;;;15.90;99.90;;;;;;5070825;28;20264;-83
2023/09/18 00:15:36;;;;;;;24.92;20.00;;;16.00;99.90;;;;;;5072950;28;20526;-83
2023/09/18 00:18:03;;;;;;;27.63;20.05;;;16.00;99.90;;;;;;5056235;28;20052;-83
2023/09/18 00:20:29;;;;;;;24.42;18.17;;;16.00;99.90;;;;;;5071183;28;20105;-83
2023/09/18 00:22:55;;;;;;;21.85;17.67;;;16.10;99.90;;;;;;5062321;28;20039;-83
2023/09/18 00:25:23;;;;;;;24.08;18.52;;;16.00;99.90;;;;;;5059558;28;20028;-83
2023/09/18 00:27:49;;;;;;;22.15;18.70;;;16.00;99.90;;;;;;5061126;28;20463;-83
2023/09/18 00:30:15;;;;;;;26.77;20.15;;;16.10;99.90;;;;;;5057207;28;20052;-83
2023/09/18 00:32:46;;;;;;;24.45;19.98;;;16.20;99.90;;;;;;5073226;28;20031;-83
2023/09/18 00:35:12;;;;;;;27.25;21.65;;;16.20;99.90;;;;;;5059781;28;20093;-83
2023/09/18 00:37:39;;;;;;;25.60;20.27;;;16.20;99.90;;;;;;5057715;28;20037;-83
2023/09/18 00:40:06;;;;;;;27.75;21.00;;;16.20;99.90;;;;;;5053886;28;20101;-83
2023/09/18 00:42:32;;;;;;;25.77;20.67;;;16.20;99.90;;;;;;5075132;28;20071;-83
2023/09/18 00:44:57;;;;;;;29.00;20.40;;;16.20;99.90;;;;;;5059872;28;20095;-83
2023/09/18 00:47:23;;;;;;;27.98;20.88;;;16.20;99.90;;;;;;5074259;28;20044;-82
2023/09/18 00:49:51;;;;;;;28.02;21.45;;;16.20;99.90;;;;;;5058653;28;20040;-82
2023/09/18 00:52:19;;;;;;;26.63;20.55;;;16.20;99.90;;;;;;5070045;28;20097;-83
2023/09/18 00:54:45;;;;;;;25.73;20.33;;;16.20;99.90;;;;;;5071744;28;20036;-83
2023/09/18 00:57:11;;;;;;;27.20;20.27;;;16.20;99.90;;;;;;5069186;28;20059;-83
2023/09/18 00:59:38;;;;;;;24.27;19.35;;;16.10;99.90;;;;;;5074961;28;20135;-82
2023/09/18 01:02:04;;;;;;;26.58;20.33;;;16.10;99.90;;;;;;5052912;28;20040;-82
2023/09/18 01:04:32;;;;;;;34.08;23.50;;;16.20;99.90;;;;;;5047486;28;20047;-82
2023/09/18 01:07:04;;;;;;;28.80;22.15;;;16.20;99.90;;;;;;5065414;28;20468;-83
2023/09/18 01:09:33;;;;;;;26.92;22.17;;;16.20;99.90;;;;;;5072024;28;20211;-83
2023/09/18 01:12:14;;;;;;;35.00;25.48;;;16.20;99.90;;;;;;5054417;28;20043;-83
2023/09/18 01:14:47;;;;;;;33.97;23.88;;;16.30;99.90;;;;;;5085976;28;20036;-82
2023/09/18 01:17:15;;;;;;;29.33;23.13;;;16.20;99.90;;;;;;5055477;28;20040;-83
2023/09/18 01:19:46;;;;;;;32.42;24.90;;;16.20;99.90;;;;;;5067692;28;20566;-82
2023/09/18 01:22:17;;;;;;;33.35;25.30;;;16.20;99.90;;;;;;5063611;28;20512;-82
2023/09/18 01:24:45;;;;;;;30.13;24.55;;;16.20;99.90;;;;;;5073799;28;20488;-82
2023/09/18 01:27:16;;;;;;;34.45;25.52;;;16.30;99.90;;;;;;5059248;28;20052;-82
2023/09/18 01:29:46;;;;;;;31.52;25.48;;;16.20;99.90;;;;;;5076120;28;20110;-82
2023/09/18 01:32:12;;;;;;;31.63;25.13;;;16.20;99.90;;;;;;5058102;28;20119;-82
2023/09/18 01:34:42;;;;;;;35.38;27.67;;;16.20;99.90;;;;;;5058748;28;20491;-83
2023/09/18 01:37:11;;;;;;;36.75;28.98;;;16.30;99.90;;;;;;5037975;28;20107;-83
2023/09/18 01:39:38;;;;;;;36.28;25.33;;;16.40;99.90;;;;;;5068809;28;20040;-83
2023/09/18 01:42:05;;;;;;;35.08;26.60;;;16.40;99.90;;;;;;5069997;28;20044;-83
2023/09/18 01:44:32;;;;;;;38.50;29.13;;;16.40;99.90;;;;;;5068898;28;20150;-82
2023/09/18 01:47:01;;;;;;;37.55;28.50;;;16.40;99.90;;;;;;5080509;28;20571;-83
2023/09/18 01:49:37;;;;;;;37.30;27.73;;;16.40;99.90;;;;;;5090667;28;20151;-83
2023/09/18 01:52:04;;;;;;;37.95;29.83;;;16.40;99.90;;;;;;5069383;28;20423;-82
2023/09/18 01:54:31;;;;;;;40.17;28.73;;;16.40;99.90;;;;;;5088116;28;20488;-83
2023/09/18 01:56:57;;;;;;;34.78;27.90;;;16.50;99.90;;;;;;5074452;28;20032;-82
2023/09/18 01:59:23;;;;;;;40.22;29.20;;;16.40;99.90;;;;;;5073749;28;20527;-83
2023/09/18 02:01:50;;;;;;;46.58;32.17;;;16.40;99.90;;;;;;5082162;28;20407;-83
2023/09/18 02:04:17;;;;;;;43.00;31.00;;;16.50;99.90;;;;;;5091186;28;20051;-83
2023/09/18 02:06:43;;;;;;;39.50;29.95;;;16.50;99.90;;;;;;5083711;28;20508;-83
2023/09/18 02:09:08;;;;;;;40.17;31.27;;;16.50;99.90;;;;;;5076326;28;20051;-82
2023/09/18 02:11:39;;;;;;;38.83;29.33;;;16.60;99.90;;;;;;5072378;28;20032;-82
2023/09/18 02:14:05;;;;;;;39.60;29.92;;;16.50;99.90;;;;;;5077097;28;20273;-82
2023/09/18 02:16:35;;;;;;;40.63;30.48;;;16.60;99.90;;;;;;5088578;28;20035;-82
2023/09/18 02:19:02;;;;;;;37.28;28.67;;;16.60;99.90;;;;;;5076590;28;20195;-82
2023/09/18 02:21:28;;;;;;;38.60;27.80;;;16.60;99.90;;;;;;5072681;28;20046;-82
2023/09/18 02:23:58;;;;;;;37.38;27.33;;;16.60;99.90;;;;;;5097211;28;20040;-82
2023/09/18 02:26:24;;;;;;;35.17;26.60;;;16.70;99.90;;;;;;5075541;28;20084;-82
2023/09/18 02:28:53;;;;;;;37.17;29.08;;;16.70;99.90;;;;;;5079187;28;20404;-82
2023/09/18 02:31:19;;;;;;;40.08;29.83;;;16.80;99.90;;;;;;5084311;28;20044;-82
2023/09/18 02:33:45;;;;;;;40.97;29.02;;;16.70;99.90;;;;;;5076737;28;20047;-83
2023/09/18 02:36:11;;;;;;;36.30;28.90;;;16.70;99.90;;;;;;5089450;28;20059;-83
2023/09/18 02:38:36;;;;;;;36.45;27.90;;;16.70;99.90;;;;;;5075405;28;20044;-83
2023/09/18 02:41:02;;;;;;;39.65;28.42;;;16.70;99.90;;;;;;5091689;28;20396;-82
2023/09/18 02:43:28;;;;;;;32.63;25.65;;;16.80;99.90;;;;;;5079458;28;20077;-82
2023/09/18 02:45:53;;;;;;;37.72;27.30;;;16.80;99.90;;;;;;5073503;28;20126;-82
2023/09/18 02:48:19;;;;;;;33.55;27.35;;;16.80;99.90;;;;;;5075041;28;20074;-82
2023/09/18 02:50:45;;;;;;;33.22;26.88;;;16.80;99.90;;;;;;5081179;28;20032;-83
2023/09/18 02:53:22;;;;;;;33.05;26.98;;;16.80;99.90;;;;;;5078962;28;20039;-82
2023/09/18 02:55:53;;;;;;;34.47;26.98;;;16.90;99.90;;;;;;5090911;28;20040;-82
2023/09/18 02:58:19;;;;;;;35.20;27.10;;;16.90;99.90;;;;;;5093268;28;20496;-83
2023/09/18 03:00:49;;;;;;;35.30;27.75;;;17.00;99.90;;;;;;5089936;28;20359;-83
2023/09/18 03:03:16;;;;;;;33.42;27.38;;;16.90;99.90;;;;;;5073046;28;20040;-83
2023/09/18 03:05:43;;;;;;;35.88;27.17;;;17.00;99.90;;;;;;5075648;28;20476;-82
2023/09/18 03:08:13;;;;;;;32.42;25.55;;;16.90;99.90;;;;;;5075909;28;20032;-82
2023/09/18 03:10:40;;;;;;;35.30;25.80;;;17.00;99.90;;;;;;5077330;28;20031;-82
2023/09/18 03:13:07;;;;;;;35.50;26.27;;;17.00;99.90;;;;;;5093476;28;20059;-82
2023/09/18 03:15:33;;;;;;;32.42;24.55;;;17.00;99.90;;;;;;5079573;28;20391;-82
2023/09/18 03:18:00;;;;;;;33.65;24.98;;;16.90;99.90;;;;;;5078414;28;20068;-82
2023/09/18 03:20:27;;;;;;;31.25;24.85;;;17.00;99.90;;;;;;5079555;28;20065;-82
2023/09/18 03:22:56;;;;;;;30.85;25.33;;;17.00;99.90;;;;;;5089205;28;20044;-82
2023/09/18 03:25:22;;;;;;;29.02;24.00;;;17.00;99.90;;;;;;5072700;28;20114;-83
2023/09/18 03:27:48;;;;;;;29.42;24.88;;;17.00;99.90;;;;;;5091440;28;20159;-83
2023/09/18 03:30:15;;;;;;;32.63;23.85;;;17.00;99.90;;;;;;5108184;27;20028;-82
2023/09/18 03:32:42;;;;;;;31.63;24.88;;;17.00;99.90;;;;;;5081429;28;20060;-82
2023/09/18 03:35:18;;;;;;;30.52;23.73;;;17.00;99.90;;;;;;5081914;28;20036;-83
2023/09/18 03:37:56;;;;;;;31.83;24.70;;;17.00;99.90;;;;;;5095583;28;20128;-82
2023/09/18 03:40:22;;;;;;;30.83;24.52;;;17.00;99.90;;;;;;5075614;28;20031;-83
2023/09/18 03:42:51;;;;;;;31.17;24.58;;;16.90;99.90;;;;;;5076388;28;20121;-83
2023/09/18 03:45:18;;;;;;;29.02;23.88;;;17.00;99.90;;;;;;5066068;28;20335;-83
2023/09/18 03:47:44;;;;;;;30.60;23.60;;;16.90;99.90;;;;;;5074176;28;20123;-84
2023/09/18 03:50:11;;;;;;;28.50;22.60;;;16.90;99.90;;;;;;5058246;28;20397;-83
2023/09/18 03:52:38;;;;;;;28.52;22.65;;;16.90;99.90;;;;;;5070340;28;20399;-83
2023/09/18 03:55:05;;;;;;;30.77;23.15;;;16.80;99.90;;;;;;5059626;28;20032;-83
2023/09/18 03:57:31;;;;;;;27.35;22.10;;;16.90;99.90;;;;;;5058226;28;20143;-83
2023/09/18 03:59:59;;;;;;;24.48;21.00;;;16.80;99.90;;;;;;5064182;28;20191;-83
2023/09/18 04:02:25;;;;;;;26.02;21.98;;;17.00;99.90;;;;;;5060568;28;20098;-83
2023/09/18 04:04:53;;;;;;;26.00;21.60;;;16.90;99.90;;;;;;5056415;28;20480;-83
2023/09/18 04:07:19;;;;;;;26.10;21.52;;;16.90;99.90;;;;;;5074108;28;20044;-83
2023/09/18 04:09:45;;;;;;;27.13;21.42;;;16.90;99.90;;;;;;5078432;28;20040;-83
2023/09/18 04:12:11;;;;;;;25.88;21.50;;;16.90;99.90;;;;;;5074330;28;20076;-83
2023/09/18 04:14:37;;;;;;;27.80;21.08;;;17.00;99.90;;;;;;5058580;28;20070;-83
2023/09/18 04:17:03;;;;;;;26.27;20.90;;;17.00;99.90;;;;;;5063470;28;20147;-83
2023/09/18 04:19:29;;;;;;;27.23;21.60;;;17.00;99.90;;;;;;5070798;28;20033;-83
2023/09/18 04:21:55;;;;;;;26.83;21.83;;;17.00;99.90;;;;;;5059685;28;20055;-83
2023/09/18 04:24:21;;;;;;;27.98;22.60;;;17.00;99.90;;;;;;5073441;28;20427;-82
2023/09/18 04:26:50;;;;;;;29.30;22.27;;;17.00;99.90;;;;;;5062477;28;20448;-82
2023/09/18 04:29:16;;;;;;;26.45;21.67;;;17.00;99.90;;;;;;5061058;28;20130;-83
2023/09/18 04:31:42;;;;;;;25.33;21.33;;;17.00;99.90;;;;;;5066684;28;20100;-82
2023/09/18 04:34:08;;;;;;;26.85;22.13;;;17.00;99.90;;;;;;5059654;28;20036;-83
2023/09/18 04:36:33;;;;;;;25.05;21.02;;;17.00;99.90;;;;;;5062918;28;20036;-83
2023/09/18 04:38:59;;;;;;;29.70;21.63;;;17.10;99.90;;;;;;5062972;28;20036;-83
2023/09/18 04:41:25;;;;;;;27.25;21.17;;;17.00;99.90;;;;;;5062191;28;20035;-82
2023/09/18 04:43:50;;;;;;;26.60;19.35;;;17.00;99.90;;;;;;5074090;28;20044;-83
2023/09/18 04:46:19;;;;;;;26.65;20.17;;;17.10;99.90;;;;;;5059419;28;20044;-83
2023/09/18 04:48:44;;;;;;;25.02;19.33;;;17.10;99.90;;;;;;5053071;28;20044;-83
2023/09/18 04:51:12;;;;;;;25.80;19.65;;;17.10;99.90;;;;;;5059032;28;20551;-83
2023/09/18 04:53:37;;;;;;;23.92;19.17;;;17.10;99.90;;;;;;5060406;28;20041;-83
2023/09/18 04:56:03;;;;;;;23.98;19.05;;;17.10;99.90;;;;;;5068844;28;20044;-83
2023/09/18 04:58:29;;;;;;;24.63;18.63;;;17.10;99.90;;;;;;5059029;28;20131;-82
2023/09/18 05:01:00;;;;;;;23.65;19.08;;;17.10;99.90;;;;;;5071389;28;20036;-83
2023/09/18 05:03:29;;;;;;;22.35;18.77;;;17.20;99.90;;;;;;5073611;28;20392;-83
2023/09/18 05:05:55;;;;;;;26.60;19.17;;;17.10;99.90;;;;;;5059987;28;20553;-83
2023/09/18 05:08:21;;;;;;;25.85;17.90;;;17.20;99.90;;;;;;5059231;28;20127;-83
2023/09/18 05:10:47;;;;;;;24.88;18.67;;;17.20;99.90;;;;;;5072068;28;20127;-83
2023/09/18 05:13:13;;;;;;;23.13;18.50;;;17.20;99.90;;;;;;5058759;28;20111;-83
2023/09/18 05:15:39;;;;;;;24.60;17.83;;;17.20;99.90;;;;;;5073184;28;20037;-83
2023/09/18 05:18:05;;;;;;;22.27;18.67;;;17.20;99.90;;;;;;5055901;28;20055;-83
2023/09/18 05:20:31;;;;;;;22.52;18.23;;;17.30;99.90;;;;;;5056388;28;20393;-83
2023/09/18 05:22:58;;;;;;;21.83;17.92;;;17.30;99.90;;;;;;5058083;28;20059;-83
2023/09/18 05:25:25;;;;;;;24.58;17.98;;;17.30;99.90;;;;;;5058379;28;20595;-83
2023/09/18 05:27:56;;;;;;;22.15;17.48;;;17.30;99.90;;;;;;5056870;28;20261;-83
2023/09/18 05:30:25;;;;;;;20.50;17.20;;;17.30;99.90;;;;;;5071132;28;20040;-83
2023/09/18 05:32:51;;;;;;;22.98;18.20;;;17.30;99.90;;;;;;5063799;28;20404;-83
2023/09/18 05:35:17;;;;;;;23.08;16.80;;;17.30;99.90;;;;;;5067981;28;20047;-83
2023/09/18 05:37:43;;;;;;;24.35;16.30;;;17.40;99.90;;;;;;5054306;28;20051;-83
2023/09/18 05:40:11;;;;;;;21.60;16.02;;;17.40;99.90;;;;;;5055627;28;20082;-83
2023/09/18 05:42:43;;;;;;;19.85;14.98;;;17.40;99.90;;;;;;5058499;28;20044;-83
2023/09/18 05:45:10;;;;;;;21.65;15.13;;;17.50;99.90;;;;;;5068498;28;20169;-83
2023/09/18 05:47:35;;;;;;;18.88;14.88;;;17.60;99.90;;;;;;5075121;28;20670;-83
2023/09/18 05:50:03;;;;;;;20.67;13.85;;;17.60;99.90;;;;;;5091602;28;20479;-83
2023/09/18 05:52:29;;;;;;;19.25;13.85;;;17.70;99.90;;;;;;5074147;28;20551;-83
2023/09/18 05:54:55;;;;;;;17.52;12.88;;;17.80;99.90;;;;;;5092727;28;20055;-83
2023/09/18 05:57:21;;;;;;;15.15;11.88;;;17.80;99.90;;;;;;5076483;28;20377;-83
2023/09/18 05:59:46;;;;;;;19.42;13.73;;;17.80;99.90;;;;;;5079146;28;20035;-83
2023/09/18 06:02:16;;;;;;;16.02;12.30;;;17.80;99.90;;;;;;5079367;28;20290;-83
2023/09/18 06:04:47;;;;;;;15.88;12.23;;;17.90;99.90;;;;;;5076323;28;20157;-83
2023/09/18 06:07:13;;;;;;;13.75;11.40;;;17.90;99.90;;;;;;5093786;28;20079;-83
2023/09/18 06:09:39;;;;;;;15.52;11.55;;;18.00;99.90;;;;;;5089264;28;20071;-83
2023/09/18 06:12:05;;;;;;;16.42;10.85;;;18.00;99.90;;;;;;5079273;28;20040;-83
2023/09/18 06:14:34;;;;;;;16.23;10.85;;;18.00;99.90;;;;;;5091954;28;20044;-83
2023/09/18 06:16:59;;;;;;;15.85;11.20;;;18.10;99.90;;;;;;5073454;28;20376;-83
2023/09/18 06:19:25;;;;;;;14.93;10.40;;;18.10;99.90;;;;;;5074669;28;20279;-83
2023/09/18 06:21:50;;;;;;;13.70;10.32;;;18.20;99.90;;;;;;5077537;28;20126;-83
2023/09/18 06:24:16;;;;;;;16.92;10.57;;;18.30;99.90;;;;;;5091767;28;20052;-83
2023/09/18 06:26:42;;;;;;;16.73;11.13;;;18.30;99.90;;;;;;5080013;28;20043;-84
2023/09/18 06:29:09;;;;;;;13.32;9.35;;;18.30;99.90;;;;;;5088525;27;20308;-83
2023/09/18 06:31:35;;;;;;;15.55;9.38;;;18.30;99.90;;;;;;5078929;28;20043;-83
2023/09/18 06:34:01;;;;;;;17.50;8.98;;;18.40;99.90;;;;;;5087452;28;20035;-83
2023/09/18 06:36:26;;;;;;;12.88;9.43;;;18.40;99.90;;;;;;5079037;28;20040;-83
2023/09/18 06:38:53;;;;;;;12.25;8.77;;;18.40;99.90;;;;;;5076991;28;20036;-82
2023/09/18 06:41:18;;;;;;;13.20;8.18;;;18.40;99.90;;;;;;5079913;28;20065;-83
2023/09/18 06:43:44;;;;;;;13.68;8.57;;;18.50;99.90;;;;;;5087812;28;21038;-84
2023/09/18 06:46:10;;;;;;;12.73;8.85;;;18.40;99.90;;;;;;5072604;28;20512;-84
2023/09/18 06:48:36;;;;;;;14.02;9.15;;;18.50;99.90;;;;;;5053675;28;20056;-83
2023/09/18 06:51:02;;;;;;;13.40;9.23;;;18.50;99.90;;;;;;5057929;28;20047;-82
2023/09/18 06:53:28;;;;;;;14.95;9.43;;;18.60;99.90;;;;;;5057726;28;20443;-83
2023/09/18 06:55:55;;;;;;;11.95;9.00;;;18.50;99.90;;;;;;5070358;28;20537;-82
2023/09/18 06:58:21;;;;;;;14.98;9.95;;;18.60;99.90;;;;;;5058795;28;20644;-82
2023/09/18 07:00:47;;;;;;;12.57;9.43;;;18.60;99.90;;;;;;5069281;28;20186;-82
2023/09/18 07:03:13;;;;;;;13.93;9.98;;;18.60;99.90;;;;;;5062205;28;20488;-83
2023/09/18 07:05:40;;;;;;;13.02;9.93;;;18.70;99.90;;;;;;5075111;28;20047;-82
2023/09/18 07:08:09;;;;;;;16.45;10.02;;;18.70;99.90;;;;;;5063699;28;20215;-83
2023/09/18 07:10:39;;;;;;;15.73;11.02;;;18.60;99.90;;;;;;5058466;28;20586;-83
2023/09/18 07:13:05;;;;;;;12.02;10.38;;;18.70;99.90;;;;;;5074673;28;20075;-83
2023/09/18 07:15:31;;;;;;;16.08;10.65;;;18.60;99.90;;;;;;5077591;28;20168;-83
2023/09/18 07:17:56;;;;;;;14.48;10.93;;;18.50;99.90;;;;;;5058097;28;20028;-82
2023/09/18 07:20:23;;;;;;;22.23;11.73;;;18.60;99.90;;;;;;5046500;28;20094;-82
2023/09/18 07:22:52;;;;;;;23.02;11.65;;;18.50;99.90;;;;;;5060340;28;20046;-83
2023/09/18 07:25:18;;;;;;;21.45;12.25;;;18.50;99.90;;;;;;5059981;28;20047;-82
2023/09/18 07:27:43;;;;;;;19.45;12.88;;;18.50;99.90;;;;;;5060032;28;20032;-82
2023/09/18 07:30:10;;;;;;;22.85;13.52;;;18.50;99.90;;;;;;5057278;28;20059;-83
2023/09/18 07:32:36;;;;;;;15.90;12.32;;;18.50;99.90;;;;;;5060023;28;20396;-82
2023/09/18 07:35:04;;;;;;;16.75;12.90;;;18.50;99.90;;;;;;5071393;28;20044;-82
2023/09/18 07:37:30;;;;;;;18.75;13.32;;;18.50;99.90;;;;;;5060864;28;20424;-82
2023/09/18 07:39:56;;;;;;;19.27;12.88;;;18.50;99.90;;;;;;5052605;28;20185;-82
2023/09/18 07:42:26;;;;;;;16.92;12.40;;;18.40;99.90;;;;;;5053972;28;20560;-82
2023/09/18 07:44:51;;;;;;;17.35;13.50;;;18.50;99.90;;;;;;5085198;28;20052;-82
2023/09/18 07:47:17;;;;;;;19.13;12.82;;;18.40;99.90;;;;;;5074759;28;20047;-82
2023/09/18 07:49:42;;;;;;;18.33;13.57;;;18.40;99.90;;;;;;5075278;28;20043;-82
2023/09/18 07:52:08;;;;;;;17.27;12.43;;;18.50;99.90;;;;;;5082027;28;20373;-82
2023/09/18 07:54:34;;;;;;;16.27;12.35;;;18.50;99.90;;;;;;5080043;28;20032;-83
2023/09/18 07:57:01;;;;;;;19.83;12.70;;;18.50;99.90;;;;;;5092884;28;20488;-83
2023/09/18 07:59:27;;;;;;;15.40;12.77;;;18.50;99.90;;;;;;5074371;28;20044;-82
2023/09/18 08:01:54;;;;;;;16.52;12.35;;;18.60;99.90;;;;;;5077591;28;20028;-82
2023/09/18 08:04:20;;;;;;;16.08;12.68;;;18.60;99.90;;;;;;5074122;28;20829;-83
2023/09/18 08:06:47;;;;;;;20.98;12.70;;;18.60;99.90;;;;;;5073598;28;20046;-83
2023/09/18 08:09:15;;;;;;;13.90;11.93;;;18.70;99.90;;;;;;5078935;28;20081;-83
2023/09/18 08:11:42;;;;;;;17.80;12.40;;;18.70;99.90;;;;;;5095420;28;20050;-83
2023/09/18 08:14:08;;;;;;;18.38;11.88;;;18.70;99.90;;;;;;5092198;28;20396;-83
2023/09/18 08:16:34;;;;;;;15.57;12.07;;;18.70;99.90;;;;;;5078058;28;20043;-83
2023/09/18 08:19:01;;;;;;;15.82;11.88;;;18.70;99.90;;;;;;5089621;28;20043;-83
2023/09/18 08:21:28;;;;;;;15.60;12.15;;;18.60;99.90;;;;;;5092355;28;20129;-83
2023/09/18 08:23:55;;;;;;;15.07;11.00;;;18.70;99.90;;;;;;5078995;28;20044;-83
2023/09/18 08:26:22;;;;;;;16.23;11.40;;;18.70;99.90;;;;;;5082389;28;20518;-82
2023/09/18 08:28:48;;;;;;;15.07;12.05;;;18.70;99.90;;;;;;5078085;28;20098;-82
2023/09/18 08:31:16;;;;;;;15.23;10.82;;;18.70;99.90;;;;;;5091510;28;20457;-83
2023/09/18 08:33:42;;;;;;;14.82;11.40;;;18.70;99.90;;;;;;5075049;28;20039;-83
2023/09/18 08:36:09;;;;;;;17.95;11.02;;;18.70;99.90;;;;;;5091618;28;20036;-83
2023/09/18 08:38:34;;;;;;;13.02;10.43;;;18.70;99.90;;;;;;5091388;27;20039;-83
2023/09/18 08:41:04;;;;;;;16.10;11.25;;;18.80;99.90;;;;;;5094807;28;20039;-84
2023/09/18 08:43:32;;;;;;;15.45;11.13;;;18.80;99.90;;;;;;5081945;28;20408;-83
2023/09/18 08:46:01;;;;;;;15.25;10.70;;;18.90;99.90;;;;;;5080805;28;20494;-83
2023/09/18 08:48:34;;;;;;;12.88;10.95;;;19.00;99.90;;;;;;5087283;28;20122;-83
2023/09/18 08:51:08;;;;;;;13.45;10.90;;;19.00;99.90;;;;;;5071658;28;20039;-83
2023/09/18 08:53:35;;;;;;;15.77;11.88;;;19.30;99.90;;;;;;5076510;28;20047;-83
2023/09/18 08:56:03;;;;;;;16.45;11.35;;;19.40;99.90;;;;;;5091177;28;20346;-83
2023/09/18 08:58:37;;;;;;;15.70;11.43;;;19.50;99.90;;;;;;5093969;28;20376;-83
2023/09/18 09:01:03;;;;;;;16.40;11.43;;;19.40;99.90;;;;;;5079707;28;20043;-82
2023/09/18 09:03:30;;;;;;;14.85;11.18;;;19.30;99.90;;;;;;5081663;28;20036;-83
2023/09/18 09:05:56;;;;;;;15.50;11.38;;;19.40;99.90;;;;;;5078468;28;20040;-83
2023/09/18 09:08:22;;;;;;;16.85;11.88;;;19.40;99.90;;;;;;5075095;28;20300;-83
2023/09/18 09:10:49;;;;;;;15.18;11.82;;;19.30;99.90;;;;;;5078330;28;20032;-83
2023/09/18 09:13:14;;;;;;;14.13;11.02;;;19.30;99.90;;;;;;5075376;28;20278;-83
2023/09/18 09:15:49;;;;;;;16.42;12.30;;;19.30;99.90;;;;;;5078366;28;20546;-83
2023/09/18 09:18:15;;;;;;;;;;;19.20;99.90;;;;;;5089124;28;20051;-83
2023/09/18 09:20:51;;;;;;;16.95;10.73;;;19.30;99.90;;;;;;5080827;28;19924;-83
2023/09/18 09:23:17;;;;;;;18.35;11.63;;;19.20;99.90;;;;;;5075336;28;20043;-83
2023/09/18 09:25:43;;;;;;;13.95;10.95;;;19.20;99.90;;;;;;5097137;28;20462;-83
2023/09/18 09:28:09;;;;;;;20.45;11.77;;;19.40;99.90;;;;;;5081727;28;20039;-84
2023/09/18 09:30:36;;;;;;;16.52;11.55;;;19.50;99.90;;;;;;5080191;28;20042;-83
2023/09/18 09:33:04;;;;;;;17.00;11.20;;;19.50;99.90;;;;;;5076182;28;20468;-83
2023/09/18 09:35:35;;;;;;;16.40;12.63;;;19.60;99.90;;;;;;5079382;28;20039;-83
2023/09/18 09:38:11;;;;;;;14.90;12.02;;;19.70;99.90;;;;;;5076186;28;20051;-83
2023/09/18 09:40:40;;;;;;;15.45;11.70;;;19.90;99.90;;;;;;5074965;28;20046;-83
2023/09/18 09:43:08;;;;;;;16.65;11.52;;;20.20;99.90;;;;;;5092731;28;20059;-83
2023/09/18 09:45:36;;;;;;;15.10;11.15;;;20.20;99.90;;;;;;5074953;28;20101;-84
2023/09/18 09:48:05;;;;;;;14.93;10.85;;;20.20;99.90;;;;;;5059228;28;20052;-83
2023/09/18 09:50:32;;;;;;;17.10;10.80;;;20.20;99.90;;;;;;5067711;28;20042;-83
2023/09/18 09:52:58;;;;;;;17.15;11.32;;;20.30;99.90;;;;;;5061173;28;20130;-83
2023/09/18 09:55:30;;;;;;;15.05;11.40;;;20.30;99.90;;;;;;5061982;28;20197;-83
2023/09/18 09:58:02;;;;;;;17.42;11.20;;;20.30;99.90;;;;;;5075403;28;20032;-83
2023/09/18 10:00:40;;;;;;;17.85;12.20;;;20.40;99.90;;;;;;5060641;28;20048;-84
2023/09/18 10:03:08;;;;;;;16.73;12.23;;;20.60;99.90;;;;;;5072463;28;20262;-83
2023/09/18 10:05:45;;;;;;;15.82;12.25;;;20.70;99.90;;;;;;5070883;28;20043;-83
2023/09/18 10:08:26;;;;;;;14.65;12.00;;;21.00;99.90;;;;;;5057556;28;20040;-83
2023/09/18 10:11:16;;;;;;;15.13;11.93;;;21.00;99.90;;;;;;5072780;28;20181;-84
2023/09/18 10:13:46;;;;;;;16.90;11.45;;;21.40;99.90;;;;;;5058635;28;20039;-84
2023/09/18 10:16:18;;;;;;;19.02;11.95;;;21.30;99.90;;;;;;5056823;28;20058;-84
2023/09/18 10:19:00;;;;;;;15.45;12.02;;;21.50;99.90;;;;;;5059609;28;20076;-84
2023/09/18 10:21:55;;;;;;;18.00;12.38;;;21.60;99.90;;;;;;5060305;28;20663;-84
2023/09/18 10:24:25;;;;;;;14.27;11.57;;;21.60;99.90;;;;;;5050323;28;20445;-84
2023/09/18 10:26:58;;;;;;;14.52;11.20;;;21.90;99.90;;;;;;5073410;28;20040;-84
2023/09/18 10:29:25;;;;;;;16.52;11.93;;;21.80;99.90;;;;;;5057797;28;20649;-84
2023/09/18 10:31:52;;;;;;;13.48;11.10;;;22.20;99.90;;;;;;5059959;28;20033;-84
2023/09/18 10:34:19;;;;;;;13.57;11.00;;;22.30;99.90;;;;;;5052005;28;20028;-84
2023/09/18 10:36:50;;;;;;;15.00;10.13;;;22.50;99.90;;;;;;5070868;28;20288;-84
2023/09/18 10:39:19;;;;;;;11.55;9.85;;;22.40;99.90;;;;;;5055773;28;20485;-84
2023/09/18 10:41:52;;;;;;;11.10;9.25;;;22.70;99.90;;;;;;5073793;28;20051;-85
2023/09/18 10:44:19;;;;;;;11.20;8.30;;;22.90;99.90;;;;;;5086038;28;20074;-84
2023/09/18 10:46:46;;;;;;;10.60;8.43;;;22.70;99.90;;;;;;5080768;28;20043;-84
2023/09/18 10:49:11;;;;;;;11.30;7.80;;;22.60;99.90;;;;;;5089964;28;20126;-85
2023/09/18 10:51:42;;;;;;;9.98;7.55;;;22.90;99.90;;;;;;5079572;28;20122;-84
2023/09/18 10:54:14;;;;;;;9.27;7.75;;;23.10;99.90;;;;;;5089076;28;20035;-85
2023/09/18 10:56:41;;;;;;;10.27;6.97;;;23.30;99.90;;;;;;5095439;28;20027;-85
2023/09/18 10:59:08;;;;;;;10.48;6.90;;;23.60;99.90;;;;;;5091406;28;20201;-84
2023/09/18 11:01:36;;;;;;;8.20;6.78;;;23.70;99.90;;;;;;5092948;28;20408;-84
2023/09/18 11:04:09;;;;;;;8.93;6.15;;;23.30;99.90;;;;;;5083253;28;20048;-85
2023/09/18 11:06:53;;;;;;;9.18;5.47;;;23.20;99.90;;;;;;5080256;28;20039;-84
2023/09/18 11:09:24;;;;;;;8.73;5.55;;;23.00;99.90;;;;;;5081790;28;20096;-85
2023/09/18 11:12:03;;;;;;;6.13;5.53;;;22.90;99.90;;;;;;5080146;28;20450;-84
2023/09/18 11:14:55;;;;;;;9.60;5.00;;;22.70;99.90;;;;;;5089025;28;20063;-85
2023/09/18 11:17:36;;;;;;;6.43;5.45;;;22.60;99.90;;;;;;5079786;28;20090;-84
2023/09/18 11:20:23;;;;;;;5.28;4.38;;;22.50;99.90;;;;;;5086741;28;20373;-85
2023/09/18 11:23:18;;;;;;;7.75;5.00;;;22.40;99.90;;;;;;5090132;28;20534;-84
2023/09/18 11:25:47;;;;;;;7.28;4.78;;;22.30;99.90;;;;;;5086158;28;20071;-85
2023/09/18 11:28:23;;;;;;;9.50;5.15;;;22.50;99.90;;;;;;5094788;28;20261;-84
2023/09/18 11:30:58;;;;;;;6.25;4.30;;;23.10;99.90;;;;;;5078584;28;20040;-85
2023/09/18 11:33:34;;;;;;;7.07;4.68;;;23.50;99.90;;;;;;5094821;28;20066;-84
2023/09/18 11:36:26;;;;;;;5.25;3.70;;;23.70;99.90;;;;;;5094336;28;20040;-85
2023/09/18 11:38:53;;;;;;;7.18;4.32;;;24.00;99.90;;;;;;5069777;28;20048;-84
2023/09/18 11:41:25;;;;;;;6.30;4.00;;;24.20;99.90;;;;;;5078686;28;20035;-85
2023/09/18 11:43:51;;;;;;;4.88;3.88;;;23.60;99.90;;;;;;5073108;28;20096;-84
2023/09/18 11:46:22;;;;;;;5.75;4.28;;;23.10;99.90;;;;;;5071611;28;20353;-85
2023/09/18 11:48:51;;;;;;;4.57;3.70;;;22.80;99.90;;;;;;5068884;28;20476;-85
2023/09/18 11:51:23;;;;;;;5.18;3.70;;;22.60;99.90;;;;;;5063372;28;20142;-85
2023/09/18 11:53:52;;;;;;;6.63;3.90;;;22.60;99.90;;;;;;5063663;28;20042;-84
2023/09/18 11:56:18;;;;;;;4.47;4.05;;;23.10;99.90;;;;;;5063733;28;20047;-85
2023/09/18 11:58:46;;;;;;;4.85;3.92;;;23.40;99.90;;;;;;5058917;28;20035;-85
2023/09/18 12:01:13;;;;;;;5.45;3.97;;;23.60;99.90;;;;;;5063521;28;20063;-84
2023/09/18 12:03:41;;;;;;;4.55;4.00;;;23.80;99.90;;;;;;5073579;28;20565;-85
2023/09/18 12:06:09;;;;;;;5.20;3.95;;;23.90;99.90;;;;;;5073152;28;20040;-85
2023/09/18 12:08:36;;;;;;;6.35;4.20;;;24.50;99.90;;;;;;5060417;28;20120;-84
2023/09/18 12:11:05;;;;;;;4.15;3.75;;;24.30;99.90;;;;;;5076956;28;20218;-85
2023/09/18 12:13:31;;;;;;;6.78;4.07;;;24.10;99.90;;;;;;5063034;28;20044;-85
2023/09/18 12:15:59;;;;;;;4.55;3.85;;;24.30;99.90;;;;;;5059499;28;20038;-84
2023/09/18 12:18:31;;;;;;;6.10;4.13;;;24.10;99.90;;;;;;5060185;28;20036;-85
2023/09/18 12:20:58;;;;;;;4.63;3.80;;;24.00;99.90;;;;;;5058304;28;20472;-85
2023/09/18 12:23:25;;;;;;;4.70;3.70;;;24.10;99.90;;;;;;5063048;28;20031;-84
2023/09/18 12:25:59;;;;;;;5.90;3.75;;;24.30;99.90;;;;;;5063763;28;20408;-84
2023/09/18 12:28:27;;;;;;;5.85;3.90;;;23.80;99.90;;;;;;5081869;28;20366;-83
2023/09/18 12:30:56;;;;;;;5.45;3.97;;;23.70;99.90;;;;;;5061574;28;20401;-85
2023/09/18 12:33:22;;;;;;;5.18;3.78;;;23.20;99.90;;;;;;5076420;28;20492;-85
2023/09/18 12:35:49;;;;;;;8.07;4.03;;;23.10;99.90;;;;;;5072264;28;20215;-84